createdAt,value
2022-12-28T00:02:23.956Z,2.56
2022-12-28T00:04:52.097Z,2.50
2022-12-28T00:07:20.541Z,2.61
2022-12-28T00:09:52.338Z,2.62
2022-12-28T00:12:21.343Z,2.68
2022-12-28T00:14:50.856Z,2.75
2022-12-28T00:17:22.467Z,2.74
2022-12-28T00:19:50.719Z,2.71
2022-12-28T00:22:19.176Z,2.69
2022-12-28T00:24:47.132Z,2.68
2022-12-28T00:27:16.149Z,2.62
2022-12-28T00:29:44.749Z,2.69
2022-12-28T00:32:14.785Z,2.71
2022-12-28T00:34:43.126Z,2.75
2022-12-28T00:37:13.277Z,2.80
2022-12-28T00:39:42.183Z,2.81
2022-12-28T00:42:10.874Z,2.82
2022-12-28T00:44:38.907Z,2.88
2022-12-28T00:47:07.042Z,2.87
2022-12-28T00:49:37.012Z,2.87
2022-12-28T00:52:06.638Z,2.83
2022-12-28T00:54:35.835Z,2.91
2022-12-28T00:57:05.193Z,2.92
2022-12-28T00:59:35.885Z,3.00
2022-12-28T01:02:04.140Z,3.08
2022-12-28T01:04:33.163Z,3.06
2022-12-28T01:07:02.585Z,3.08
2022-12-28T01:09:32.661Z,3.08
2022-12-28T01:12:01.789Z,3.03
2022-12-28T01:14:31.199Z,3.01
2022-12-28T01:17:00.748Z,3.05
2022-12-28T01:19:30.126Z,3.01
2022-12-28T01:22:00.022Z,3.04
2022-12-28T01:24:29.723Z,3.11
2022-12-28T01:27:02.920Z,3.12
2022-12-28T01:29:32.725Z,3.12
2022-12-28T01:32:00.755Z,3.16
2022-12-28T01:34:30.990Z,3.14
2022-12-28T01:36:59.085Z,3.20
2022-12-28T01:39:30.393Z,3.33
2022-12-28T01:41:59.001Z,3.39
2022-12-28T01:44:40.408Z,3.43
2022-12-28T01:47:10.826Z,3.48
2022-12-28T01:49:43.458Z,3.51
2022-12-28T01:52:15.747Z,3.63
2022-12-28T01:54:47.851Z,3.65
2022-12-28T01:57:16.803Z,3.70
2022-12-28T01:59:49.093Z,3.71
2022-12-28T02:02:22.577Z,3.73
2022-12-28T02:04:51.463Z,3.85
2022-12-28T02:07:25.147Z,3.87
2022-12-28T02:10:43.490Z,3.96
2022-12-28T02:12:45.623Z,3.95
2022-12-28T02:15:17.079Z,4.05
2022-12-28T02:17:49.653Z,4.10
2022-12-28T02:20:18.127Z,4.20
2022-12-28T02:22:53.275Z,4.18
2022-12-28T02:25:36.337Z,4.28
2022-12-28T02:28:11.317Z,4.27
2022-12-28T02:30:44.505Z,4.25
2022-12-28T02:33:18.510Z,4.30
2022-12-28T02:35:50.236Z,4.30
2022-12-28T02:38:22.043Z,4.35
2022-12-28T02:40:52.233Z,4.29
2022-12-28T02:43:20.707Z,4.32
2022-12-28T02:46:08.895Z,4.28
2022-12-28T02:48:59.145Z,4.16
2022-12-28T02:51:43.653Z,4.20
2022-12-28T02:54:44.399Z,4.14
2022-12-28T02:57:20.027Z,4.09
2022-12-28T02:59:54.002Z,4.03
2022-12-28T03:02:35.283Z,4.11
2022-12-28T03:05:40.631Z,4.12
2022-12-28T03:08:20.120Z,4.05
2022-12-28T03:10:53.391Z,4.08
2022-12-28T03:13:41.558Z,4.15
2022-12-28T03:16:16.570Z,4.07
2022-12-28T03:19:08.331Z,4.04
2022-12-28T03:21:55.158Z,4.04
2022-12-28T03:24:41.677Z,4.18
2022-12-28T03:27:31.777Z,4.11
2022-12-28T03:30:20.223Z,4.14
2022-12-28T03:32:51.533Z,4.12
2022-12-28T03:35:27.636Z,4.11
2022-12-28T03:37:59.635Z,4.10
2022-12-28T03:40:34.352Z,4.15
2022-12-28T03:43:23.002Z,4.07
2022-12-28T03:45:56.583Z,4.12
2022-12-28T03:48:26.238Z,4.12
2022-12-28T03:50:56.424Z,4.05
2022-12-28T03:53:27.981Z,4.03
2022-12-28T03:56:11.985Z,4.03
2022-12-28T03:58:41.090Z,4.02
2022-12-28T04:01:10.973Z,4.01
2022-12-28T04:03:43.642Z,4.05
2022-12-28T04:06:16.768Z,4.06
2022-12-28T04:08:45.934Z,4.08
2022-12-28T04:11:14.664Z,4.05
2022-12-28T04:13:45.783Z,4.09
2022-12-28T04:16:16.685Z,4.00
2022-12-28T04:18:45.657Z,4.08
2022-12-28T04:21:17.007Z,4.05
2022-12-28T04:23:46.575Z,4.04
2022-12-28T04:26:21.691Z,4.05
2022-12-28T04:28:53.267Z,4.04
2022-12-28T04:31:51.011Z,4.07
2022-12-28T04:34:21.878Z,4.10
2022-12-28T04:37:02.284Z,4.14
2022-12-28T04:39:55.374Z,4.16
2022-12-28T04:42:19.069Z,4.22
2022-12-28T04:44:47.110Z,4.27
2022-12-28T04:47:15.391Z,4.24
2022-12-28T04:49:43.384Z,4.36
2022-12-28T04:52:12.939Z,4.31
2022-12-28T04:54:43.813Z,4.35
2022-12-28T04:57:12.177Z,4.37
2022-12-28T04:59:40.856Z,4.37
2022-12-28T05:02:09.905Z,4.39
2022-12-28T05:04:38.206Z,4.29
2022-12-28T05:07:06.337Z,4.28
2022-12-28T05:09:37.187Z,4.37
2022-12-28T05:12:05.600Z,4.37
2022-12-28T05:14:37.155Z,4.38
2022-12-28T05:17:08.339Z,4.38
2022-12-28T05:19:37.643Z,4.36
2022-12-28T05:22:19.329Z,4.32
2022-12-28T05:24:48.704Z,4.32
2022-12-28T05:27:16.993Z,4.38
2022-12-28T05:29:45.829Z,4.43
2022-12-28T05:32:14.073Z,4.48
2022-12-28T05:34:44.573Z,4.41
2022-12-28T05:37:18.510Z,4.36
2022-12-28T05:39:51.291Z,4.48
2022-12-28T05:42:19.339Z,4.44
2022-12-28T05:44:47.590Z,4.36
2022-12-28T05:47:15.627Z,4.35
2022-12-28T05:49:43.633Z,4.43
2022-12-28T05:52:11.676Z,4.58
2022-12-28T05:54:41.182Z,4.50
2022-12-28T05:57:12.609Z,4.52
2022-12-28T05:59:40.945Z,4.43
2022-12-28T06:02:12.871Z,4.50
2022-12-28T06:04:41.559Z,4.53
2022-12-28T06:07:09.855Z,4.53
2022-12-28T06:09:38.120Z,4.51
2022-12-28T06:12:06.974Z,4.56
2022-12-28T06:14:36.483Z,4.50
2022-12-28T06:17:04.586Z,4.53
2022-12-28T06:19:32.882Z,4.59
2022-12-28T06:22:01.092Z,4.57
2022-12-28T06:24:30.604Z,4.53
2022-12-28T06:26:58.524Z,4.56
2022-12-28T06:29:28.249Z,4.53
2022-12-28T06:32:00.719Z,4.60
2022-12-28T06:34:30.964Z,4.65
2022-12-28T06:37:00.488Z,4.70
2022-12-28T06:39:31.881Z,4.63
2022-12-28T06:42:00.310Z,4.67
2022-12-28T06:44:28.575Z,4.65
2022-12-28T06:46:58.161Z,4.67
2022-12-28T06:49:27.165Z,4.69
2022-12-28T06:51:55.175Z,4.72
2022-12-28T06:54:24.621Z,4.79
2022-12-28T06:56:52.555Z,4.73
2022-12-28T06:59:21.074Z,4.77
2022-12-28T07:02:01.238Z,4.77
2022-12-28T07:04:30.995Z,4.72
2022-12-28T07:06:59.158Z,4.82
2022-12-28T07:09:27.125Z,4.84
2022-12-28T07:11:55.336Z,4.86
2022-12-28T07:14:23.274Z,4.83
2022-12-28T07:16:51.477Z,4.85
2022-12-28T07:19:19.646Z,4.89
2022-12-28T07:21:50.561Z,4.85
2022-12-28T07:24:19.137Z,4.83
2022-12-28T07:26:47.662Z,4.80
2022-12-28T07:29:16.357Z,4.90
2022-12-28T07:31:46.040Z,4.94
2022-12-28T07:34:14.588Z,4.94
2022-12-28T07:36:44.079Z,4.96
2022-12-28T07:39:13.475Z,4.92
2022-12-28T07:41:41.517Z,5.02
2022-12-28T07:44:11.451Z,5.03
2022-12-28T07:46:39.494Z,5.05
2022-12-28T07:49:08.424Z,5.03
2022-12-28T07:51:37.422Z,5.07
2022-12-28T07:54:07.176Z,5.09
2022-12-28T07:59:05.143Z,5.27
2022-12-28T08:01:35.394Z,5.29
2022-12-28T08:04:04.944Z,5.25
2022-12-28T08:06:35.375Z,5.30
2022-12-28T08:09:03.799Z,5.25
2022-12-28T08:11:33.280Z,5.27
2022-12-28T08:14:03.546Z,5.35
2022-12-28T08:16:33.679Z,5.43
2022-12-28T08:19:02.519Z,5.43
2022-12-28T08:21:32.024Z,5.42
2022-12-28T08:24:00.639Z,5.41
2022-12-28T08:26:30.286Z,5.48
2022-12-28T08:29:00.616Z,5.52
2022-12-28T08:31:30.979Z,5.49
2022-12-28T08:34:02.340Z,5.54
2022-12-28T08:36:31.071Z,5.67
2022-12-28T08:38:59.394Z,5.64
2022-12-28T08:41:28.662Z,5.76
2022-12-28T08:43:59.011Z,5.76
2022-12-28T08:46:28.017Z,5.78
2022-12-28T08:49:00.490Z,5.96
2022-12-28T08:51:31.045Z,5.95
2022-12-28T08:54:01.094Z,6.03
2022-12-28T08:56:30.680Z,6.05
2022-12-28T08:58:59.883Z,6.01
2022-12-28T09:01:29.029Z,6.00
2022-12-28T09:03:59.911Z,6.08
2022-12-28T09:06:30.445Z,6.14
2022-12-28T09:09:07.293Z,6.16
2022-12-28T09:11:36.219Z,6.19
2022-12-28T09:14:05.383Z,6.23
2022-12-28T09:16:33.968Z,6.21
2022-12-28T09:19:05.359Z,6.37
2022-12-28T09:21:35.087Z,6.43
2022-12-28T09:24:03.094Z,6.56
2022-12-28T09:26:32.372Z,6.47
2022-12-28T09:29:01.731Z,6.44
2022-12-28T09:31:33.614Z,6.40
2022-12-28T09:36:51.797Z,6.44
2022-12-28T09:39:24.399Z,6.45
2022-12-28T09:41:55.132Z,6.50
2022-12-28T09:44:45.164Z,6.65
2022-12-28T09:47:18.019Z,6.68
2022-12-28T09:49:47.650Z,6.74
2022-12-28T09:52:25.359Z,6.84
2022-12-28T09:54:55.026Z,6.99
2022-12-28T09:57:24.573Z,7.04
2022-12-28T09:59:53.379Z,6.97
2022-12-28T10:02:29.070Z,7.02
2022-12-28T10:04:59.597Z,7.00
2022-12-28T10:07:28.994Z,7.03
2022-12-28T10:09:57.826Z,7.05
2022-12-28T10:12:26.368Z,7.10
2022-12-28T10:14:54.921Z,7.13
2022-12-28T10:17:26.684Z,7.25
2022-12-28T10:19:57.804Z,7.21
2022-12-28T10:22:40.650Z,7.21
2022-12-28T10:25:18.970Z,7.44
2022-12-28T10:27:47.033Z,7.49
2022-12-28T10:30:17.116Z,7.52
2022-12-28T10:32:49.935Z,7.53
2022-12-28T10:35:23.181Z,7.44
2022-12-28T10:37:58.642Z,7.46
2022-12-28T10:40:28.234Z,7.53
2022-12-28T10:42:58.330Z,7.77
2022-12-28T10:45:33.712Z,7.74
2022-12-28T10:48:02.954Z,7.90
2022-12-28T10:50:52.396Z,8.00
2022-12-28T10:53:24.752Z,8.04
2022-12-28T10:56:06.328Z,7.90
2022-12-28T10:58:35.995Z,7.83
2022-12-28T11:01:07.370Z,7.94
2022-12-28T11:03:37.100Z,8.09
2022-12-28T11:06:09.765Z,8.08
2022-12-28T11:08:39.994Z,8.15
2022-12-28T11:11:08.908Z,8.21
2022-12-28T11:13:38.473Z,8.08
2022-12-28T11:16:07.993Z,8.10
2022-12-28T11:18:38.052Z,8.08
2022-12-28T11:21:07.452Z,8.08
2022-12-28T11:23:35.657Z,8.08
2022-12-28T11:26:05.748Z,8.24
2022-12-28T11:28:33.781Z,8.52
2022-12-28T11:31:01.860Z,8.59
2022-12-28T11:33:33.533Z,8.80
2022-12-28T11:36:06.978Z,8.88
2022-12-28T11:38:40.352Z,8.79
2022-12-28T11:41:14.671Z,8.54
2022-12-28T11:43:53.181Z,8.35
2022-12-28T11:46:43.313Z,8.25
2022-12-28T11:49:26.939Z,8.33
2022-12-28T11:52:14.117Z,8.31
2022-12-28T11:54:51.614Z,8.43
2022-12-28T11:57:35.270Z,8.45
2022-12-28T12:00:23.852Z,8.53
2022-12-28T12:02:56.582Z,8.64
2022-12-28T12:05:48.664Z,8.64
2022-12-28T12:08:35.160Z,8.68
2022-12-28T12:11:29.676Z,8.72
2022-12-28T12:14:00.021Z,8.66
2022-12-28T12:16:31.874Z,8.77
2022-12-28T12:19:02.006Z,8.96
2022-12-28T12:21:35.229Z,8.94
2022-12-28T12:24:14.509Z,8.81
2022-12-28T12:26:47.132Z,8.57
2022-12-28T12:29:16.872Z,8.44
2022-12-28T12:31:47.899Z,8.50
2022-12-28T12:34:23.046Z,8.51
2022-12-28T12:37:13.601Z,8.35
2022-12-28T12:39:59.630Z,8.42
2022-12-28T12:42:31.035Z,8.49
2022-12-28T12:45:04.193Z,8.40
2022-12-28T12:47:51.170Z,8.32
2022-12-28T12:50:40.283Z,8.29
2022-12-28T12:53:20.122Z,8.32
2022-12-28T12:55:54.061Z,8.30
2022-12-28T12:58:26.082Z,8.26
2022-12-28T13:01:09.669Z,8.25
2022-12-28T13:03:42.083Z,8.30
2022-12-28T13:06:16.221Z,8.36
2022-12-28T13:08:48.930Z,8.47
2022-12-28T13:11:17.434Z,8.38
2022-12-28T13:13:49.353Z,8.36
2022-12-28T13:16:19.011Z,8.37
2022-12-28T13:18:55.459Z,8.31
2022-12-28T13:21:24.879Z,8.27
2022-12-28T13:23:56.535Z,8.26
2022-12-28T13:26:27.501Z,8.25
2022-12-28T13:28:58.655Z,8.19
2022-12-28T13:31:32.669Z,8.28
2022-12-28T13:34:02.530Z,8.24
2022-12-28T13:36:31.774Z,8.18
2022-12-28T13:39:12.322Z,8.25
2022-12-28T13:41:44.814Z,8.28
2022-12-28T13:44:37.887Z,8.31
2022-12-28T13:47:10.048Z,8.39
2022-12-28T13:49:41.992Z,8.40
2022-12-28T13:52:13.646Z,8.36
2022-12-28T13:54:46.115Z,8.34
2022-12-28T13:57:45.404Z,8.36
2022-12-28T14:00:04.918Z,8.49
2022-12-28T14:02:35.679Z,8.40
2022-12-28T14:05:04.166Z,8.36
2022-12-28T14:07:32.516Z,8.38
2022-12-28T14:10:04.289Z,8.43
2022-12-28T14:12:32.845Z,8.43
2022-12-28T14:15:03.818Z,8.41
2022-12-28T14:17:33.886Z,8.41
2022-12-28T14:20:02.310Z,8.40
2022-12-28T14:22:36.132Z,8.40
2022-12-28T14:25:07.389Z,8.45
2022-12-28T14:27:37.899Z,8.41
2022-12-28T14:30:07.892Z,8.51
2022-12-28T14:32:42.618Z,8.52
2022-12-28T14:35:17.783Z,8.52
2022-12-28T14:37:47.683Z,8.55
2022-12-28T14:40:25.377Z,8.69
2022-12-28T14:42:54.443Z,8.65
2022-12-28T14:45:23.267Z,8.55
2022-12-28T14:47:55.484Z,8.57
2022-12-28T14:50:25.833Z,8.53
2022-12-28T14:53:04.965Z,8.62
2022-12-28T14:55:35.794Z,8.58
2022-12-28T14:58:06.557Z,8.64
2022-12-28T15:00:36.024Z,8.63
2022-12-28T15:03:18.035Z,8.61
2022-12-28T15:05:47.619Z,8.57
2022-12-28T15:08:15.725Z,8.49
2022-12-28T15:10:48.968Z,8.42
2022-12-28T15:13:18.490Z,8.39
2022-12-28T15:15:54.110Z,8.42
2022-12-28T15:18:23.897Z,8.49
2022-12-28T15:20:52.389Z,8.47
2022-12-28T15:23:21.132Z,8.39
2022-12-28T15:25:54.244Z,8.41
2022-12-28T15:28:28.194Z,8.25
2022-12-28T15:30:57.441Z,8.29
2022-12-28T15:33:25.780Z,8.31
2022-12-28T15:36:02.545Z,8.31
2022-12-28T15:38:33.884Z,8.37
2022-12-28T15:41:04.438Z,8.29
2022-12-28T15:43:33.088Z,8.34
2022-12-28T15:46:01.399Z,8.36
2022-12-28T15:48:31.637Z,8.28
2022-12-28T15:50:59.949Z,8.24
2022-12-28T15:53:29.757Z,8.11
2022-12-28T15:56:01.624Z,8.15
2022-12-28T15:58:31.927Z,8.24
2022-12-28T16:01:01.282Z,8.17
2022-12-28T16:03:35.562Z,8.05
2022-12-28T16:06:05.982Z,8.03
2022-12-28T16:08:34.319Z,8.08
2022-12-28T16:11:08.817Z,8.09
2022-12-28T16:13:39.190Z,8.13
2022-12-28T16:16:08.520Z,8.08
2022-12-28T16:18:39.145Z,8.08
2022-12-28T16:21:08.309Z,8.12
2022-12-28T16:23:37.876Z,8.05
2022-12-28T16:26:06.990Z,7.98
2022-12-28T16:28:36.116Z,7.92
2022-12-28T16:31:07.261Z,7.91
2022-12-28T16:33:37.695Z,7.88
2022-12-28T16:36:12.350Z,7.91
2022-12-28T16:38:41.603Z,7.85
2022-12-28T16:41:12.431Z,7.82
2022-12-28T16:43:44.629Z,7.90
2022-12-28T16:46:15.420Z,7.79
2022-12-28T16:48:44.049Z,7.72
2022-12-28T16:51:13.393Z,7.80
2022-12-28T16:53:41.582Z,7.81
2022-12-28T16:56:11.103Z,7.73
2022-12-28T16:58:39.307Z,7.83
2022-12-28T17:01:08.967Z,7.83
2022-12-28T17:03:40.104Z,7.77
2022-12-28T17:06:08.985Z,7.82
2022-12-28T17:08:37.412Z,7.87
2022-12-28T17:11:08.459Z,7.82
2022-12-28T17:13:39.516Z,7.95
2022-12-28T17:16:10.231Z,8.00
2022-12-28T17:18:39.707Z,8.00
2022-12-28T17:21:10.140Z,8.06
2022-12-28T17:23:42.804Z,8.11
2022-12-28T17:26:11.115Z,8.06
2022-12-28T17:28:39.137Z,7.99
2022-12-28T17:31:08.518Z,8.07
2022-12-28T17:33:39.776Z,8.00
2022-12-28T17:36:10.464Z,7.91
2022-12-28T17:38:41.947Z,7.95
2022-12-28T17:41:16.294Z,7.83
2022-12-28T17:43:46.563Z,7.87
2022-12-28T17:46:15.681Z,7.84
2022-12-28T17:48:43.906Z,7.88
2022-12-28T17:51:13.639Z,7.89
2022-12-28T17:53:42.745Z,7.81
2022-12-28T17:56:30.869Z,7.90
2022-12-28T18:08:24.481Z,7.88
2022-12-28T18:11:06.816Z,7.77
2022-12-28T18:13:40.039Z,7.91
2022-12-28T18:16:09.864Z,7.85
2022-12-28T18:18:38.727Z,7.87
2022-12-28T18:21:19.595Z,7.88
2022-12-28T18:23:52.565Z,7.82
2022-12-28T18:26:26.238Z,7.91
2022-12-28T18:28:56.640Z,7.97
2022-12-28T18:31:25.860Z,7.85
2022-12-28T18:33:58.238Z,7.81
2022-12-28T18:36:29.021Z,7.78
2022-12-28T18:39:02.896Z,7.76
2022-12-28T18:41:34.183Z,7.77
2022-12-28T18:44:06.093Z,7.80
2022-12-28T18:46:35.262Z,7.70
2022-12-28T18:49:03.981Z,7.75
2022-12-28T18:58:46.584Z,7.65
2022-12-28T19:01:55.373Z,7.64
2022-12-28T19:04:07.550Z,7.57
2022-12-28T19:06:38.068Z,7.61
2022-12-28T19:09:07.113Z,7.64
2022-12-28T19:11:35.384Z,7.65
2022-12-28T19:14:05.271Z,7.59
2022-12-28T19:16:33.506Z,7.52
2022-12-28T19:19:04.420Z,7.49
2022-12-28T19:21:39.932Z,7.49
2022-12-28T19:24:12.942Z,7.47
2022-12-28T19:26:42.736Z,7.51
2022-12-28T19:29:18.083Z,7.48
2022-12-28T19:31:47.970Z,7.59
2022-12-28T19:34:16.579Z,7.68
2022-12-28T19:36:45.551Z,7.65
2022-12-28T19:39:16.852Z,7.62
2022-12-28T19:41:47.482Z,7.66
2022-12-28T19:44:20.369Z,7.70
2022-12-28T19:46:50.487Z,7.68
2022-12-28T19:49:19.239Z,7.73
2022-12-28T19:51:49.056Z,7.74
2022-12-28T19:54:19.502Z,7.74
2022-12-28T19:56:48.785Z,7.83
2022-12-28T19:59:22.915Z,8.01
2022-12-28T20:01:51.557Z,8.05
2022-12-28T20:04:20.476Z,8.13
2022-12-28T20:06:50.887Z,8.16
2022-12-28T20:09:19.425Z,8.34
2022-12-28T20:11:48.491Z,8.43
2022-12-28T20:14:23.289Z,8.54
2022-12-28T20:16:55.084Z,8.51
2022-12-28T20:19:25.109Z,8.58
2022-12-28T20:21:54.788Z,8.72
2022-12-28T20:24:27.691Z,8.76
2022-12-28T20:27:01.436Z,8.71
2022-12-28T20:29:30.027Z,8.73
2022-12-28T20:32:00.255Z,8.82
2022-12-28T20:34:28.560Z,8.95
2022-12-28T20:36:56.547Z,8.95
2022-12-28T20:39:24.931Z,8.98
2022-12-28T20:42:11.473Z,9.06
2022-12-28T20:44:40.716Z,9.01
2022-12-28T20:47:10.347Z,9.08
2022-12-28T20:49:38.712Z,9.16
2022-12-28T20:52:08.841Z,9.19
2022-12-28T20:54:39.152Z,9.15
2022-12-28T20:57:08.858Z,9.26
2022-12-28T20:59:36.951Z,9.19
2022-12-28T21:02:05.007Z,9.14
2022-12-28T21:04:38.025Z,9.01
2022-12-28T21:07:06.179Z,9.01
2022-12-28T21:09:34.653Z,9.04
2022-12-28T21:12:06.572Z,9.01
2022-12-28T21:14:36.548Z,9.00
2022-12-28T21:17:15.787Z,9.03
2022-12-28T21:19:57.547Z,9.08
2022-12-28T21:22:31.402Z,9.12
2022-12-28T21:25:02.823Z,9.22
2022-12-28T21:27:36.214Z,9.17
2022-12-28T21:30:05.659Z,9.14
2022-12-28T21:32:34.431Z,9.15
2022-12-28T21:35:05.142Z,9.22
2022-12-28T21:37:38.659Z,9.23
2022-12-28T21:40:14.408Z,9.23
2022-12-28T21:42:42.829Z,9.18
2022-12-28T21:45:16.005Z,9.10
2022-12-28T21:47:51.812Z,9.03
2022-12-28T21:50:22.816Z,9.05
2022-12-28T21:52:51.184Z,9.11
2022-12-28T21:55:39.246Z,9.09
2022-12-28T21:58:09.004Z,9.14
2022-12-28T22:00:55.724Z,9.08
2022-12-28T22:03:42.472Z,9.09
2022-12-28T22:06:16.956Z,9.11
2022-12-28T22:09:02.839Z,9.33
2022-12-28T22:11:49.233Z,9.23
2022-12-28T22:14:17.698Z,9.22
2022-12-28T22:16:46.631Z,9.24
2022-12-28T22:19:18.760Z,9.33
2022-12-28T22:21:51.532Z,9.28
2022-12-28T22:24:21.348Z,9.28
2022-12-28T22:26:50.608Z,9.26
2022-12-28T22:29:22.319Z,9.26
2022-12-28T22:31:54.021Z,9.22
2022-12-28T22:34:23.581Z,9.24
2022-12-28T22:36:56.927Z,9.21
2022-12-28T22:39:25.633Z,9.19
2022-12-28T22:41:54.106Z,9.16
2022-12-28T22:44:22.543Z,9.24
2022-12-28T22:46:52.494Z,9.21
2022-12-28T22:49:21.388Z,9.14
2022-12-28T22:51:51.395Z,9.11
2022-12-28T22:54:21.260Z,9.09
2022-12-28T22:56:51.959Z,9.03
2022-12-28T22:59:20.684Z,9.07
2022-12-28T23:01:51.125Z,9.03
2022-12-28T23:04:19.950Z,9.14
2022-12-28T23:30:17.734Z,9.02
2022-12-28T23:33:28.191Z,9.02
2022-12-28T23:35:56.930Z,9.00
2022-12-28T23:38:26.415Z,9.09
2022-12-28T23:41:16.922Z,9.14
2022-12-28T23:43:48.488Z,9.14
2022-12-28T23:46:17.457Z,9.15
2022-12-28T23:48:49.510Z,9.21
2022-12-28T23:51:20.758Z,9.15
2022-12-28T23:53:50.705Z,9.24
2022-12-28T23:56:19.182Z,9.22
2022-12-28T23:58:50.940Z,9.28
